Time;durP1;ratioP1;P1;durP2;ratioP2;P2;SDS_P1;SDS_P2;PMS_P1;PMS_P2;Temp;Humidity;BMP_temperature;BMP_pressure;BME280_temperature;BME280_humidity;BME280_pressure;Samples;Min_cycle;Max_cycle;Signal;HPM_P1;HPM_P2
2021/08/28 00:01:15;;;;;;;0.00;0.00;;;17.40;82.70;;;;;;5081456;28;20224;-72
2021/08/28 00:03:43;;;;;;;0.10;0.10;;;17.40;82.70;;;;;;5085248;28;20233;-72
2021/08/28 00:06:10;;;;;;;3.03;0.77;;;17.40;82.80;;;;;;5081984;28;20609;-72
2021/08/28 00:08:37;;;;;;;0.10;0.10;;;17.40;82.90;;;;;;5080907;28;20489;-72
2021/08/28 00:11:04;;;;;;;0.10;0.10;;;17.30;82.90;;;;;;5071072;28;20291;-72
2021/08/28 00:13:31;;;;;;;0.10;0.10;;;17.40;83.10;;;;;;5079952;28;20217;-72
2021/08/28 00:16:00;;;;;;;2.33;2.13;;;17.30;83.10;;;;;;5087272;28;20217;-73
2021/08/28 00:18:27;;;;;;;0.00;0.00;;;17.30;83.20;;;;;;5085597;28;20563;-73
2021/08/28 00:20:54;;;;;;;0.20;0.20;;;17.20;83.30;;;;;;5083756;28;20281;-73
2021/08/28 00:23:21;;;;;;;0.00;0.00;;;17.20;83.50;;;;;;5073708;28;20213;-73
2021/08/28 00:25:48;;;;;;;0.00;0.00;;;17.20;83.60;;;;;;5084509;28;20217;-73
2021/08/28 00:28:15;;;;;;;0.07;0.07;;;17.20;83.70;;;;;;5065923;28;20209;-72
2021/08/28 00:30:42;;;;;;;0.10;0.10;;;17.10;83.70;;;;;;5080384;28;20213;-72
2021/08/28 00:33:11;;;;;;;0.10;0.10;;;17.20;83.50;;;;;;5079953;28;20651;-72
2021/08/28 00:35:38;;;;;;;0.87;0.87;;;17.20;83.40;;;;;;5084707;28;20213;-72
2021/08/28 00:38:06;;;;;;;0.00;0.00;;;17.20;83.30;;;;;;5082510;28;20210;-72
2021/08/28 00:40:35;;;;;;;0.00;0.00;;;17.10;83.20;;;;;;5080942;28;20209;-72
2021/08/28 00:43:02;;;;;;;0.10;0.10;;;17.20;83.20;;;;;;5065942;28;20229;-72
2021/08/28 00:45:40;;;;;;;0.07;0.07;;;17.20;83.20;;;;;;5085776;28;20235;-72
2021/08/28 00:48:11;;;;;;;0.10;0.10;;;17.20;83.10;;;;;;5068896;28;20274;-72
2021/08/28 00:50:41;;;;;;;0.10;0.10;;;17.10;82.90;;;;;;5084221;28;20263;-72
2021/08/28 00:53:10;;;;;;;0.00;0.00;;;17.10;82.90;;;;;;5065685;28;20611;-72
2021/08/28 00:55:40;;;;;;;0.10;0.10;;;17.10;83.10;;;;;;5085321;28;20219;-72
2021/08/28 00:58:08;;;;;;;0.00;0.00;;;17.00;83.10;;;;;;5066313;28;20303;-72
2021/08/28 01:00:50;;;;;;;0.00;0.00;;;17.10;83.20;;;;;;5081112;28;20786;-72
2021/08/28 01:03:25;;;;;;;0.10;0.10;;;17.10;83.20;;;;;;5079894;28;20585;-72
2021/08/28 01:06:09;;;;;;;0.00;0.00;;;17.00;83.10;;;;;;5083705;28;20210;-72
2021/08/28 01:08:58;;;;;;;0.00;0.00;;;17.10;83.10;;;;;;5078935;28;20217;-73
2021/08/28 01:11:40;;;;;;;0.10;0.10;;;17.10;83.70;;;;;;5063784;28;20540;-73
2021/08/28 01:14:13;;;;;;;0.00;0.00;;;17.10;83.10;;;;;;5063013;28;20236;-72
2021/08/28 01:16:42;;;;;;;0.03;0.03;;;17.10;83.10;;;;;;5078226;28;20268;-72
2021/08/28 01:19:18;;;;;;;0.00;0.00;;;17.00;83.20;;;;;;5077753;28;20522;-72
2021/08/28 01:21:46;;;;;;;0.10;0.10;;;17.00;83.30;;;;;;5072379;28;20578;-72
2021/08/28 01:24:15;;;;;;;0.10;0.10;;;16.90;83.30;;;;;;5083017;28;20233;-72
2021/08/28 01:27:10;;;;;;;0.10;0.10;;;16.90;83.30;;;;;;5082545;28;20213;-72
2021/08/28 01:29:38;;;;;;;0.10;0.10;;;16.90;83.40;;;;;;5058115;28;20271;-72
2021/08/28 01:32:07;;;;;;;0.00;0.00;;;16.90;83.60;;;;;;5065098;28;20213;-72
2021/08/28 01:34:36;;;;;;;0.10;0.10;;;16.80;83.60;;;;;;5081203;28;20447;-73
2021/08/28 01:37:04;;;;;;;0.00;0.00;;;16.80;83.70;;;;;;5077531;28;20218;-73
2021/08/28 01:39:32;;;;;;;0.10;0.10;;;16.90;83.80;;;;;;5083990;28;20668;-73
2021/08/28 01:42:04;;;;;;;0.00;0.00;;;16.80;83.70;;;;;;5082031;28;20218;-73
2021/08/28 01:44:33;;;;;;;0.10;0.10;;;16.90;83.80;;;;;;5082625;28;20297;-73
2021/08/28 01:47:00;;;;;;;0.10;0.10;;;16.90;83.70;;;;;;5083263;28;20217;-73
2021/08/28 01:49:28;;;;;;;0.30;0.30;;;16.90;83.80;;;;;;5081585;28;20221;-73
2021/08/28 01:51:55;;;;;;;0.00;0.00;;;16.90;83.90;;;;;;5083977;28;20266;-73
2021/08/28 01:54:22;;;;;;;0.10;0.10;;;16.90;83.90;;;;;;5063344;28;20225;-73
2021/08/28 01:56:50;;;;;;;0.57;0.57;;;16.90;83.90;;;;;;5076638;28;20228;-73
2021/08/28 01:59:19;;;;;;;0.10;0.10;;;16.90;83.80;;;;;;5065461;28;20209;-73
2021/08/28 02:01:46;;;;;;;0.10;0.10;;;16.90;83.80;;;;;;5080472;28;20363;-73
2021/08/28 02:04:14;;;;;;;0.00;0.00;;;16.90;83.70;;;;;;5082526;28;20272;-73
2021/08/28 02:06:46;;;;;;;0.10;0.10;;;16.90;83.60;;;;;;5082220;28;20275;-73
2021/08/28 02:09:34;;;;;;;0.47;0.47;;;17.00;83.60;;;;;;5063717;28;20658;-72
2021/08/28 02:12:08;;;;;;;0.00;0.00;;;17.00;83.50;;;;;;5096258;28;20236;-72
2021/08/28 02:15:11;;;;;;;0.10;0.10;;;16.90;83.40;;;;;;5079526;28;20209;-72
2021/08/28 02:17:48;;;;;;;0.07;0.07;;;16.90;83.40;;;;;;5077080;28;20213;-72
2021/08/28 02:20:18;;;;;;;0.00;0.00;;;17.00;83.40;;;;;;5081736;28;20247;-72
2021/08/28 02:22:47;;;;;;;0.10;0.10;;;16.90;83.20;;;;;;5083013;28;20205;-72
2021/08/28 02:25:36;;;;;;;0.10;0.10;;;16.90;83.20;;;;;;5080798;28;20233;-72
2021/08/28 02:28:07;;;;;;;0.10;0.10;;;16.90;83.20;;;;;;5082158;28;20266;-72
2021/08/28 02:30:35;;;;;;;0.00;0.00;;;17.00;83.20;;;;;;5079508;28;20707;-72
2021/08/28 02:33:06;;;;;;;0.47;0.47;;;17.00;83.20;;;;;;5076854;28;20619;-73
2021/08/28 02:35:35;;;;;;;0.00;0.00;;;16.90;82.90;;;;;;5081066;28;20225;-73
2021/08/28 02:38:03;;;;;;;0.00;0.00;;;16.90;82.60;;;;;;5082322;28;20282;-73
2021/08/28 02:40:33;;;;;;;0.10;0.10;;;16.90;82.50;;;;;;5081687;28;20271;-73
2021/08/28 02:43:02;;;;;;;0.13;0.13;;;16.90;82.60;;;;;;5081158;28;20615;-73
2021/08/28 02:45:31;;;;;;;0.10;0.10;;;16.90;82.50;;;;;;5082962;28;20240;-73
2021/08/28 02:47:59;;;;;;;2.80;0.73;;;16.90;82.40;;;;;;5079888;28;20224;-73
2021/08/28 02:50:28;;;;;;;0.00;0.00;;;16.80;82.30;;;;;;5076734;28;20236;-73
2021/08/28 02:52:57;;;;;;;0.10;0.10;;;16.80;82.30;;;;;;5082866;28;20209;-73
2021/08/28 02:55:26;;;;;;;0.33;0.33;;;16.70;82.20;;;;;;5081246;28;20287;-73
2021/08/28 02:57:53;;;;;;;0.00;0.00;;;16.70;82.20;;;;;;5081487;28;20649;-73
2021/08/28 03:00:21;;;;;;;0.00;0.00;;;16.70;82.10;;;;;;5060659;28;20609;-73
2021/08/28 03:02:51;;;;;;;0.00;0.00;;;16.60;82.10;;;;;;5059405;28;20217;-73
2021/08/28 03:05:19;;;;;;;0.10;0.10;;;16.60;82.20;;;;;;5070376;28;20273;-73
2021/08/28 03:07:46;;;;;;;0.10;0.10;;;16.70;82.20;;;;;;5063629;28;20213;-73
2021/08/28 03:10:14;;;;;;;0.10;0.10;;;16.70;82.20;;;;;;5059982;28;20297;-73
2021/08/28 03:12:42;;;;;;;0.03;0.03;;;16.60;82.10;;;;;;5062875;28;20579;-73
2021/08/28 03:15:11;;;;;;;0.10;0.10;;;16.50;82.10;;;;;;5060707;28;20260;-73
2021/08/28 03:17:40;;;;;;;0.10;0.10;;;16.50;82.30;;;;;;5061264;28;20558;-73
2021/08/28 03:20:09;;;;;;;0.10;0.10;;;16.50;82.40;;;;;;5061042;28;20272;-73
2021/08/28 03:22:39;;;;;;;0.10;0.10;;;16.50;82.40;;;;;;5060413;28;20612;-73
2021/08/28 03:25:09;;;;;;;0.10;0.10;;;16.50;82.40;;;;;;5063094;28;20237;-73
2021/08/28 03:27:39;;;;;;;0.10;0.10;;;16.50;82.50;;;;;;5055998;28;20761;-73
2021/08/28 03:30:12;;;;;;;0.00;0.00;;;16.50;82.60;;;;;;5059386;28;20211;-73
2021/08/28 03:32:41;;;;;;;0.00;0.00;;;16.50;82.60;;;;;;5057022;28;20214;-73
2021/08/28 03:35:10;;;;;;;0.10;0.10;;;16.50;82.50;;;;;;5062414;28;20217;-73
2021/08/28 03:37:39;;;;;;;0.40;0.40;;;16.50;82.50;;;;;;5059756;28;20222;-73
2021/08/28 03:40:09;;;;;;;0.00;0.00;;;16.50;82.50;;;;;;5055779;28;20210;-73
2021/08/28 03:42:38;;;;;;;0.30;0.30;;;16.50;82.40;;;;;;5062288;28;20240;-73
2021/08/28 03:45:10;;;;;;;0.10;0.10;;;16.50;82.40;;;;;;5060475;28;20235;-73
2021/08/28 03:47:41;;;;;;;0.10;0.10;;;16.40;82.30;;;;;;5060673;28;20267;-73
2021/08/28 03:50:08;;;;;;;0.00;0.00;;;16.30;82.20;;;;;;5062255;28;20214;-73
2021/08/28 03:52:37;;;;;;;0.10;0.10;;;16.30;82.30;;;;;;5059549;28;20272;-73
2021/08/28 03:55:04;;;;;;;0.10;0.10;;;16.20;82.40;;;;;;5054511;28;20220;-73
2021/08/28 03:57:31;;;;;;;0.57;0.57;;;16.20;82.60;;;;;;5065246;28;20217;-73
2021/08/28 03:59:58;;;;;;;0.10;0.10;;;16.10;82.70;;;;;;5061123;28;20225;-73
2021/08/28 04:02:25;;;;;;;0.10;0.10;;;16.00;82.80;;;;;;5063132;28;20548;-73
2021/08/28 04:04:53;;;;;;;0.00;0.00;;;16.00;83.10;;;;;;5079906;28;20295;-73
2021/08/28 04:07:20;;;;;;;0.00;0.00;;;16.00;83.20;;;;;;5084805;28;20209;-73
2021/08/28 04:09:47;;;;;;;0.13;0.13;;;16.00;83.20;;;;;;5084891;28;20266;-73
2021/08/28 04:12:14;;;;;;;0.10;0.10;;;16.10;83.10;;;;;;5066482;28;20623;-73
2021/08/28 04:14:41;;;;;;;0.10;0.10;;;16.10;83.10;;;;;;5085102;28;20202;-73
2021/08/28 04:17:08;;;;;;;0.10;0.10;;;16.20;83.10;;;;;;5083219;28;20271;-73
2021/08/28 04:19:36;;;;;;;0.10;0.10;;;16.20;83.30;;;;;;5083215;28;20758;-73
2021/08/28 04:22:04;;;;;;;0.10;0.10;;;16.20;83.40;;;;;;5068533;28;20529;-73
2021/08/28 04:24:31;;;;;;;0.03;0.03;;;16.30;83.50;;;;;;5060957;28;20658;-73
2021/08/28 04:26:58;;;;;;;0.10;0.10;;;16.30;83.80;;;;;;5085808;28;20224;-73
2021/08/28 04:29:26;;;;;;;0.20;0.20;;;16.30;84.00;;;;;;5082189;28;20206;-73
2021/08/28 04:31:53;;;;;;;0.10;0.10;;;16.30;84.00;;;;;;5081463;28;20600;-73
2021/08/28 04:34:20;;;;;;;0.10;0.10;;;16.40;84.00;;;;;;5067154;28;20409;-73
2021/08/28 04:36:47;;;;;;;0.00;0.00;;;16.40;84.00;;;;;;5083663;28;20217;-73
2021/08/28 04:39:15;;;;;;;0.00;0.00;;;16.50;84.00;;;;;;5084194;28;20254;-73
2021/08/28 04:41:42;;;;;;;0.00;0.00;;;16.50;84.00;;;;;;5066978;28;20231;-73
2021/08/28 04:44:09;;;;;;;0.07;0.07;;;16.50;83.90;;;;;;5083236;28;20453;-73
2021/08/28 04:46:37;;;;;;;0.00;0.00;;;16.60;84.00;;;;;;5075656;28;20236;-73
2021/08/28 04:49:04;;;;;;;0.10;0.10;;;16.60;84.00;;;;;;5082264;28;20600;-73
2021/08/28 04:51:31;;;;;;;0.00;0.00;;;16.70;83.90;;;;;;5085590;28;20213;-74
2021/08/28 04:53:58;;;;;;;0.10;0.10;;;16.70;83.80;;;;;;5078516;28;20255;-73
2021/08/28 04:56:26;;;;;;;0.20;0.20;;;16.70;83.70;;;;;;5085039;28;20223;-73
2021/08/28 04:58:52;;;;;;;0.10;0.10;;;16.80;83.80;;;;;;5083161;28;20240;-73
2021/08/28 05:01:19;;;;;;;0.10;0.10;;;16.80;83.90;;;;;;5082051;28;20217;-73
2021/08/28 05:03:47;;;;;;;0.00;0.00;;;16.80;83.80;;;;;;5083006;28;20242;-73
2021/08/28 05:06:14;;;;;;;0.10;0.10;;;16.70;83.70;;;;;;5083444;28;20237;-73
2021/08/28 05:08:41;;;;;;;0.10;0.10;;;16.70;83.70;;;;;;5065779;28;20213;-73
2021/08/28 05:11:08;;;;;;;0.10;0.10;;;16.70;83.70;;;;;;5082872;28;20278;-73
2021/08/28 05:13:37;;;;;;;0.00;0.00;;;16.80;83.90;;;;;;5075651;28;20224;-73
2021/08/28 05:16:05;;;;;;;0.00;0.00;;;16.80;84.00;;;;;;5082513;28;20223;-73
2021/08/28 05:18:34;;;;;;;0.10;0.10;;;16.90;83.90;;;;;;5086033;28;20224;-73
2021/08/28 05:21:01;;;;;;;0.00;0.00;;;17.00;84.20;;;;;;5077770;28;20607;-73
2021/08/28 05:23:28;;;;;;;0.50;0.50;;;17.00;84.20;;;;;;5084421;28;20229;-73
2021/08/28 05:25:55;;;;;;;1.70;1.60;;;17.10;84.00;;;;;;5082041;28;20232;-73
2021/08/28 05:28:22;;;;;;;0.60;0.60;;;17.20;83.90;;;;;;5082209;28;20209;-73
2021/08/28 05:30:49;;;;;;;0.10;0.10;;;17.20;84.10;;;;;;5063436;28;20209;-72
2021/08/28 05:33:16;;;;;;;0.10;0.10;;;17.20;84.00;;;;;;5083203;28;20244;-72
2021/08/28 05:35:44;;;;;;;0.00;0.00;;;17.30;83.90;;;;;;5082824;28;20217;-72
2021/08/28 05:38:11;;;;;;;1.80;1.70;;;17.40;83.70;;;;;;5077859;28;20216;-72
2021/08/28 05:40:38;;;;;;;0.10;0.10;;;17.50;83.40;;;;;;5083145;28;20221;-72
2021/08/28 05:43:05;;;;;;;0.10;0.10;;;17.60;83.20;;;;;;5081663;28;20213;-72
2021/08/28 05:45:32;;;;;;;0.00;0.00;;;17.60;83.00;;;;;;5080383;28;20630;-72
2021/08/28 05:47:59;;;;;;;0.10;0.10;;;17.70;82.90;;;;;;5084533;28;20672;-72
2021/08/28 05:50:27;;;;;;;0.20;0.20;;;17.80;82.60;;;;;;5076796;28;20547;-72
2021/08/28 05:52:54;;;;;;;0.43;0.43;;;17.90;83.20;;;;;;5083978;28;20462;-73
2021/08/28 05:55:21;;;;;;;0.00;0.00;;;18.00;82.30;;;;;;5081061;28;20246;-72
2021/08/28 05:57:48;;;;;;;0.10;0.10;;;18.00;82.00;;;;;;5083250;28;20308;-72
2021/08/28 06:00:16;;;;;;;0.10;0.10;;;18.10;81.90;;;;;;5077762;28;20302;-72
2021/08/28 06:02:43;;;;;;;0.10;0.10;;;18.20;81.70;;;;;;5082453;28;20312;-73
2021/08/28 06:05:11;;;;;;;0.10;0.10;;;18.20;81.50;;;;;;5082296;28;20252;-72
2021/08/28 06:07:39;;;;;;;0.10;0.10;;;18.30;81.40;;;;;;5081092;28;20619;-73
2021/08/28 06:10:07;;;;;;;0.10;0.10;;;18.30;81.30;;;;;;5083177;28;20211;-73
2021/08/28 06:12:35;;;;;;;0.03;0.03;;;18.40;81.00;;;;;;5080229;28;20217;-73
2021/08/28 06:15:05;;;;;;;0.10;0.10;;;18.40;80.90;;;;;;5072088;28;20206;-73
2021/08/28 06:17:34;;;;;;;0.40;0.40;;;18.50;81.00;;;;;;5083434;28;20227;-73
2021/08/28 06:20:01;;;;;;;0.00;0.00;;;18.50;80.80;;;;;;5062704;28;20271;-73
2021/08/28 06:22:29;;;;;;;0.10;0.10;;;18.60;81.30;;;;;;5082105;28;20244;-73
2021/08/28 06:24:55;;;;;;;0.70;0.70;;;18.60;80.60;;;;;;5058828;28;20237;-73
2021/08/28 06:27:23;;;;;;;0.10;0.10;;;18.60;80.60;;;;;;5079993;28;20210;-73
2021/08/28 06:29:50;;;;;;;0.07;0.07;;;18.50;80.50;;;;;;5077887;28;20209;-73
2021/08/28 06:32:17;;;;;;;0.10;0.10;;;18.60;80.60;;;;;;5082516;28;20213;-73
2021/08/28 06:34:44;;;;;;;0.10;0.10;;;18.60;80.60;;;;;;5080785;28;20232;-73
2021/08/28 06:37:11;;;;;;;0.10;0.10;;;18.60;80.50;;;;;;5065331;28;20236;-73
2021/08/28 06:39:39;;;;;;;0.10;0.10;;;18.60;80.50;;;;;;5062022;28;20235;-73
2021/08/28 06:42:07;;;;;;;0.00;0.00;;;18.60;80.30;;;;;;5075960;28;20275;-73
2021/08/28 06:44:34;;;;;;;0.13;0.13;;;18.60;80.40;;;;;;5080533;28;20307;-73
2021/08/28 06:47:01;;;;;;;0.10;0.10;;;18.60;80.50;;;;;;5071030;28;20237;-73
2021/08/28 06:49:28;;;;;;;0.00;0.00;;;18.60;80.60;;;;;;5082121;28;20526;-74
2021/08/28 06:51:55;;;;;;;0.00;0.00;;;18.60;80.60;;;;;;5080733;28;20605;-73
2021/08/28 06:54:22;;;;;;;0.10;0.10;;;18.50;80.70;;;;;;5078446;28;20220;-73
2021/08/28 06:56:50;;;;;;;0.00;0.00;;;18.50;80.80;;;;;;5056876;28;20269;-73
2021/08/28 06:59:17;;;;;;;0.10;0.10;;;18.50;81.00;;;;;;5080072;28;20213;-73
2021/08/28 07:01:44;;;;;;;0.00;0.00;;;18.50;81.00;;;;;;5078000;28;20209;-72
2021/08/28 07:04:12;;;;;;;0.10;0.10;;;18.50;80.70;;;;;;5073360;28;20251;-72
2021/08/28 07:06:39;;;;;;;0.10;0.10;;;18.50;80.70;;;;;;5081214;28;20237;-74
2021/08/28 07:09:06;;;;;;;0.10;0.10;;;18.50;80.70;;;;;;5066505;28;20301;-73
2021/08/28 07:11:33;;;;;;;0.00;0.00;;;18.50;80.70;;;;;;5082574;28;20201;-73
2021/08/28 07:14:00;;;;;;;0.03;0.03;;;18.50;80.60;;;;;;5075353;28;20352;-73
2021/08/28 07:16:27;;;;;;;0.03;0.03;;;18.50;80.40;;;;;;5064388;28;20205;-73
2021/08/28 07:18:55;;;;;;;0.30;0.30;;;18.60;80.30;;;;;;5080780;28;20631;-73
2021/08/28 07:21:22;;;;;;;0.00;0.00;;;18.60;80.10;;;;;;5081095;28;20634;-73
2021/08/28 07:23:49;;;;;;;0.10;0.10;;;18.60;80.00;;;;;;5077559;28;20588;-73
2021/08/28 07:26:17;;;;;;;0.10;0.10;;;18.70;80.00;;;;;;5078359;28;20236;-73
2021/08/28 07:28:44;;;;;;;0.10;0.10;;;18.70;80.30;;;;;;5081586;28;20214;-73
2021/08/28 07:31:11;;;;;;;0.10;0.10;;;18.70;79.50;;;;;;5079617;28;20219;-73
2021/08/28 07:33:39;;;;;;;0.10;0.10;;;18.80;79.10;;;;;;5066098;28;20213;-73
2021/08/28 07:36:06;;;;;;;0.00;0.00;;;18.80;79.00;;;;;;5086379;28;20259;-73
2021/08/28 07:38:33;;;;;;;0.20;0.20;;;18.90;78.70;;;;;;5094913;28;20213;-73
2021/08/28 07:41:01;;;;;;;0.10;0.10;;;18.90;78.50;;;;;;5082698;28;20209;-73
2021/08/28 07:43:28;;;;;;;0.00;0.00;;;19.00;78.40;;;;;;5085165;28;20212;-73
2021/08/28 07:45:56;;;;;;;0.10;0.10;;;19.00;78.30;;;;;;5074560;28;20605;-73
2021/08/28 07:48:23;;;;;;;0.10;0.10;;;19.00;77.90;;;;;;5085398;28;20209;-73
2021/08/28 07:50:50;;;;;;;0.30;0.30;;;19.00;77.70;;;;;;5075181;28;20202;-73
2021/08/28 07:53:18;;;;;;;0.10;0.10;;;19.00;77.70;;;;;;5084466;28;20223;-73
2021/08/28 07:55:45;;;;;;;0.00;0.00;;;19.10;77.20;;;;;;5085459;28;20355;-73
2021/08/28 07:58:12;;;;;;;0.10;0.10;;;19.10;77.20;;;;;;5083430;28;20671;-73
2021/08/28 08:00:40;;;;;;;0.10;0.10;;;19.10;76.50;;;;;;5074825;28;20220;-73
2021/08/28 08:03:07;;;;;;;0.10;0.10;;;19.20;75.40;;;;;;5082466;28;20224;-73
2021/08/28 08:05:34;;;;;;;0.10;0.10;;;19.20;75.20;;;;;;5077920;28;20217;-73
2021/08/28 08:08:01;;;;;;;0.10;0.10;;;19.20;74.30;;;;;;5068310;28;20647;-73
2021/08/28 08:10:28;;;;;;;0.10;0.10;;;19.30;73.60;;;;;;5082622;28;20695;-73
2021/08/28 08:12:55;;;;;;;0.10;0.10;;;19.30;73.30;;;;;;5065079;28;20294;-73
2021/08/28 08:15:23;;;;;;;0.10;0.10;;;19.30;72.50;;;;;;5084352;28;20564;-73
2021/08/28 08:17:50;;;;;;;0.03;0.03;;;19.30;72.30;;;;;;5083575;28;20209;-73
2021/08/28 08:20:18;;;;;;;0.13;0.13;;;19.50;72.30;;;;;;5083818;28;20299;-73
2021/08/28 08:22:45;;;;;;;0.10;0.10;;;19.50;71.00;;;;;;5084131;28;20210;-73
2021/08/28 08:25:12;;;;;;;0.10;0.10;;;19.60;70.80;;;;;;5063238;28;20271;-73
2021/08/28 08:27:39;;;;;;;0.10;0.10;;;19.70;70.60;;;;;;5083165;28;20237;-73
2021/08/28 08:30:06;;;;;;;0.37;0.37;;;19.80;69.20;;;;;;5084250;28;20273;-73
2021/08/28 08:32:33;;;;;;;0.00;0.00;;;19.90;68.60;;;;;;5082320;28;20537;-72
2021/08/28 08:35:01;;;;;;;0.10;0.10;;;20.00;68.10;;;;;;5085738;28;20248;-73
2021/08/28 08:37:28;;;;;;;0.10;0.10;;;20.10;68.20;;;;;;5081929;28;20279;-73
2021/08/28 08:40:00;;;;;;;0.00;0.00;;;20.20;67.00;;;;;;5084387;28;20733;-73
2021/08/28 08:42:27;;;;;;;0.00;0.00;;;20.30;66.50;;;;;;5082427;28;20217;-73
2021/08/28 08:44:55;;;;;;;0.10;0.10;;;20.30;66.40;;;;;;5062686;28;20221;-73
2021/08/28 08:47:24;;;;;;;0.00;0.00;;;20.40;66.70;;;;;;5066096;28;20320;-73
2021/08/28 08:49:52;;;;;;;0.10;0.10;;;20.60;65.90;;;;;;5082653;28;20560;-73
2021/08/28 08:52:20;;;;;;;0.07;0.07;;;20.80;65.90;;;;;;5067039;28;20586;-73
2021/08/28 08:54:49;;;;;;;0.10;0.10;;;21.10;64.40;;;;;;5081689;28;20217;-73
2021/08/28 08:57:17;;;;;;;0.10;0.10;;;21.40;62.70;;;;;;5078405;28;20299;-73
2021/08/28 08:59:45;;;;;;;0.67;0.53;;;21.80;62.70;;;;;;5063551;28;20719;-73
2021/08/28 09:02:12;;;;;;;0.00;0.00;;;22.20;62.20;;;;;;5083634;28;20216;-73
2021/08/28 09:04:39;;;;;;;0.00;0.00;;;22.40;59.00;;;;;;5073232;28;20253;-72
2021/08/28 09:07:13;;;;;;;0.00;0.00;;;22.50;59.20;;;;;;5082771;28;20248;-73
2021/08/28 09:09:41;;;;;;;0.00;0.00;;;22.50;56.30;;;;;;5084730;28;20212;-73
2021/08/28 09:12:12;;;;;;;0.47;0.47;;;22.40;57.80;;;;;;5080942;28;20212;-73
2021/08/28 09:14:40;;;;;;;0.10;0.10;;;22.40;57.90;;;;;;5059984;28;20303;-73
2021/08/28 09:17:19;;;;;;;0.10;0.10;;;22.40;56.40;;;;;;5064122;28;20214;-73
2021/08/28 09:19:48;;;;;;;0.10;0.10;;;22.40;55.90;;;;;;5082143;28;20217;-73
2021/08/28 09:22:27;;;;;;;0.07;0.07;;;22.30;55.40;;;;;;5084115;28;20627;-73
2021/08/28 09:25:06;;;;;;;0.10;0.10;;;22.30;56.80;;;;;;5048487;28;20645;-74
2021/08/28 09:27:50;;;;;;;0.10;0.10;;;22.30;56.10;;;;;;5084223;28;20224;-73
2021/08/28 09:30:27;;;;;;;0.10;0.10;;;22.30;55.80;;;;;;5076892;28;20566;-73
2021/08/28 09:33:01;;;;;;;0.00;0.00;;;22.40;56.80;;;;;;5063425;28;20214;-73
2021/08/28 09:35:43;;;;;;;0.00;0.00;;;22.60;56.10;;;;;;5078569;28;20218;-73
2021/08/28 09:38:12;;;;;;;0.20;0.20;;;22.80;55.70;;;;;;5081343;28;20219;-73
2021/08/28 09:40:53;;;;;;;0.00;0.00;;;23.00;54.00;;;;;;5084362;28;20228;-73
2021/08/28 09:43:21;;;;;;;0.10;0.10;;;23.20;52.90;;;;;;5082736;28;20291;-73
2021/08/28 09:45:53;;;;;;;0.10;0.10;;;23.40;52.50;;;;;;5063798;28;20608;-73
2021/08/28 09:48:29;;;;;;;0.00;0.00;;;23.70;52.40;;;;;;5084051;28;20670;-73
2021/08/28 09:50:59;;;;;;;0.00;0.00;;;24.00;50.20;;;;;;5078438;28;20615;-73
2021/08/28 09:53:41;;;;;;;0.00;0.00;;;24.10;51.00;;;;;;5080270;28;20666;-72
2021/08/28 09:56:10;;;;;;;0.10;0.10;;;24.20;51.40;;;;;;5079595;28;20214;-72
2021/08/28 09:58:40;;;;;;;0.10;0.10;;;24.40;49.40;;;;;;5083201;28;20213;-72
2021/08/28 10:01:07;;;;;;;0.00;0.00;;;24.50;49.80;;;;;;5060683;28;20725;-72
2021/08/28 10:03:35;;;;;;;0.00;0.00;;;24.70;50.10;;;;;;5061128;28;20336;-72
2021/08/28 10:06:04;;;;;;;0.00;0.00;;;25.00;48.50;;;;;;5069537;28;20218;-73
2021/08/28 10:08:32;;;;;;;0.10;0.10;;;25.10;48.50;;;;;;5061158;28;20206;-72
2021/08/28 10:11:01;;;;;;;0.10;0.10;;;25.30;47.50;;;;;;5061039;28;20295;-72
2021/08/28 10:13:33;;;;;;;0.00;0.00;;;25.30;47.70;;;;;;5056343;28;20206;-72
2021/08/28 10:16:02;;;;;;;0.10;0.10;;;25.20;47.50;;;;;;5063001;28;20210;-72
2021/08/28 10:18:33;;;;;;;0.00;0.00;;;24.90;48.40;;;;;;5061306;28;20237;-72
2021/08/28 10:21:02;;;;;;;0.10;0.10;;;24.70;49.10;;;;;;5060160;28;20658;-72
2021/08/28 10:23:36;;;;;;;0.00;0.00;;;24.40;49.20;;;;;;5062407;28;20201;-72
2021/08/28 10:26:09;;;;;;;0.00;0.00;;;24.00;50.20;;;;;;5052159;28;20210;-72
2021/08/28 10:28:38;;;;;;;0.10;0.10;;;23.70;51.00;;;;;;5062373;28;20210;-72
2021/08/28 10:31:09;;;;;;;0.00;0.00;;;23.50;51.50;;;;;;5056417;28;20213;-72
2021/08/28 10:33:38;;;;;;;0.10;0.10;;;23.40;51.80;;;;;;5062447;28;20223;-72
2021/08/28 10:36:08;;;;;;;0.10;0.10;;;23.50;51.90;;;;;;5059858;28;20253;-72
2021/08/28 10:38:38;;;;;;;0.10;0.10;;;23.70;51.40;;;;;;5063674;28;20214;-72
2021/08/28 10:41:06;;;;;;;0.00;0.00;;;24.10;50.90;;;;;;5060269;28;20295;-72
2021/08/28 10:43:34;;;;;;;1.23;1.07;;;24.50;50.10;;;;;;5062221;28;20721;-72
2021/08/28 10:46:02;;;;;;;0.30;0.30;;;24.80;49.40;;;;;;5068513;28;20234;-72
2021/08/28 10:48:52;;;;;;;0.10;0.10;;;25.00;49.10;;;;;;5061503;28;20287;-73
2021/08/28 10:51:42;;;;;;;0.10;0.10;;;25.30;48.60;;;;;;5055483;28;20219;-74
2021/08/28 10:54:12;;;;;;;0.10;0.10;;;25.50;47.80;;;;;;5057315;28;20577;-72
2021/08/28 10:56:57;;;;;;;0.00;0.00;;;25.50;49.00;;;;;;5059198;28;20225;-73
2021/08/28 10:59:34;;;;;;;0.00;0.00;;;25.60;47.70;;;;;;5056024;28;20220;-73
2021/08/28 11:02:10;;;;;;;0.00;0.00;;;25.70;47.90;;;;;;5061398;28;20218;-73
2021/08/28 11:04:46;;;;;;;0.37;0.37;;;25.90;46.80;;;;;;5072742;28;20249;-72
2021/08/28 11:07:29;;;;;;;0.00;0.00;;;26.00;46.20;;;;;;5081709;28;20233;-72
2021/08/28 11:10:12;;;;;;;0.53;0.53;;;26.00;47.40;;;;;;5083790;28;20700;-72
2021/08/28 11:12:43;;;;;;;0.00;0.00;;;26.10;47.20;;;;;;5084268;28;20273;-72
2021/08/28 11:15:34;;;;;;;0.00;0.00;;;26.10;46.20;;;;;;5069121;28;20285;-73
2021/08/28 11:18:04;;;;;;;0.00;0.00;;;26.10;46.70;;;;;;5076098;28;20300;-72
2021/08/28 11:20:41;;;;;;;0.30;0.30;;;26.20;46.90;;;;;;5062607;28;20214;-72
2021/08/28 11:23:13;;;;;;;0.10;0.10;;;26.40;47.00;;;;;;5081812;28;20213;-72
2021/08/28 11:25:43;;;;;;;0.00;0.00;;;26.70;46.40;;;;;;5083305;28;20229;-72
2021/08/28 11:28:11;;;;;;;0.00;0.00;;;26.70;45.30;;;;;;5086045;28;20247;-72
2021/08/28 11:30:46;;;;;;;0.00;0.00;;;26.60;43.80;;;;;;5082154;28;20218;-72
2021/08/28 11:33:34;;;;;;;0.00;0.00;;;26.60;45.00;;;;;;5077092;28;20210;-73
2021/08/28 11:36:18;;;;;;;0.00;0.00;;;26.70;45.30;;;;;;5086600;28;20603;-73
2021/08/28 11:38:47;;;;;;;0.00;0.00;;;26.80;45.30;;;;;;5085725;28;20729;-73
2021/08/28 11:41:25;;;;;;;0.20;0.20;;;26.80;44.40;;;;;;5083396;28;20209;-74
2021/08/28 11:43:54;;;;;;;0.00;0.00;;;27.00;44.40;;;;;;5080032;28;20214;-73
2021/08/28 11:46:27;;;;;;;0.10;0.10;;;27.10;43.60;;;;;;5084553;28;20228;-73
2021/08/28 11:48:56;;;;;;;0.00;0.00;;;27.20;42.40;;;;;;5066840;28;20213;-73
2021/08/28 11:51:25;;;;;;;0.03;0.03;;;27.20;42.10;;;;;;5068390;28;20228;-73
2021/08/28 11:53:58;;;;;;;0.00;0.00;;;27.30;40.80;;;;;;5082967;28;20221;-72
2021/08/28 11:56:30;;;;;;;0.00;0.00;;;27.30;40.20;;;;;;5077262;28;20623;-73
2021/08/28 11:59:00;;;;;;;0.00;0.00;;;27.30;41.40;;;;;;5067388;28;20217;-72
2021/08/28 12:01:49;;;;;;;0.10;0.10;;;27.30;40.90;;;;;;5068140;28;20242;-73
2021/08/28 12:04:19;;;;;;;0.00;0.00;;;27.20;40.70;;;;;;5082426;28;20252;-73
2021/08/28 12:06:53;;;;;;;0.10;0.10;;;27.20;41.50;;;;;;5082594;28;20240;-73
2021/08/28 12:09:25;;;;;;;0.10;0.10;;;27.30;42.00;;;;;;5078889;28;20206;-73
2021/08/28 12:11:53;;;;;;;0.07;0.07;;;27.40;42.30;;;;;;5085966;28;20267;-73
2021/08/28 12:14:23;;;;;;;0.10;0.10;;;27.40;41.40;;;;;;5067160;28;20217;-73
2021/08/28 12:16:50;;;;;;;0.00;0.00;;;27.50;42.20;;;;;;5083379;28;20631;-73
2021/08/28 12:19:20;;;;;;;0.00;0.00;;;27.60;42.10;;;;;;5083549;28;20232;-72
2021/08/28 12:21:51;;;;;;;0.10;0.10;;;27.70;42.10;;;;;;5085026;28;20217;-73
2021/08/28 12:24:19;;;;;;;0.57;0.57;;;27.70;41.40;;;;;;5082195;28;20257;-73
2021/08/28 12:26:55;;;;;;;6.10;0.97;;;27.50;40.90;;;;;;5082712;28;20233;-74
2021/08/28 12:29:27;;;;;;;0.10;0.10;;;27.10;41.30;;;;;;5066387;28;20204;-73
2021/08/28 12:31:56;;;;;;;0.00;0.00;;;26.80;42.30;;;;;;5064204;28;20529;-73
2021/08/28 12:34:28;;;;;;;1.23;1.03;;;26.60;42.40;;;;;;5081326;28;20221;-73
2021/08/28 12:36:55;;;;;;;0.00;0.00;;;26.50;42.90;;;;;;5079193;28;20527;-73
2021/08/28 12:39:23;;;;;;;0.03;0.03;;;26.50;43.20;;;;;;5084809;28;20228;-73
2021/08/28 12:41:51;;;;;;;0.00;0.00;;;26.60;43.70;;;;;;5083018;28;20224;-73
2021/08/28 12:44:19;;;;;;;0.03;0.03;;;26.80;43.20;;;;;;5083973;28;20266;-73
2021/08/28 12:46:48;;;;;;;0.10;0.10;;;26.90;42.90;;;;;;5083575;28;20819;-73
2021/08/28 12:49:21;;;;;;;0.00;0.00;;;26.80;43.30;;;;;;5082886;28;20217;-73
2021/08/28 12:51:57;;;;;;;0.10;0.10;;;26.70;43.80;;;;;;5077464;28;20221;-73
2021/08/28 12:54:48;;;;;;;0.47;0.47;;;26.50;43.50;;;;;;5084241;28;20216;-73
2021/08/28 12:57:24;;;;;;;0.00;0.00;;;26.30;43.40;;;;;;5095520;28;20224;-73
2021/08/28 12:59:55;;;;;;;0.60;0.60;;;26.00;44.30;;;;;;5079381;28;20221;-73
2021/08/28 13:02:24;;;;;;;0.00;0.00;;;26.10;44.30;;;;;;5085021;28;20593;-73